Time;durP1;ratioP1;P1;durP2;ratioP2;P2;SDS_P1;SDS_P2;PMS_P1;PMS_P2;Temp;Humidity;BMP_temperature;BMP_pressure;BME280_temperature;BME280_humidity;BME280_pressure;Samples;Min_cycle;Max_cycle;Signal;HPM_P1;HPM_P2
2020/12/23 00:00:30;;;;;;;15.00;3.22;;;7.40;94.70;;;;;;4982454;28;20389;-72
2020/12/23 00:02:56;;;;;;;14.48;2.67;;;7.40;93.70;;;;;;5011558;28;20029;-72
2020/12/23 00:05:22;;;;;;;12.02;2.78;;;7.30;94.50;;;;;;4981910;28;20033;-72
2020/12/23 00:07:47;;;;;;;13.88;2.67;;;7.30;94.40;;;;;;4983843;28;20026;-72
2020/12/23 00:10:13;;;;;;;17.92;3.33;;;7.30;94.80;;;;;;5003390;28;20126;-72
2020/12/23 00:12:39;;;;;;;9.77;2.58;;;7.20;94.90;;;;;;5017259;28;20029;-72
2020/12/23 00:15:07;;;;;;;10.15;2.90;;;7.20;94.50;;;;;;5011856;28;20034;-72
2020/12/23 00:17:33;;;;;;;16.33;3.85;;;7.20;94.70;;;;;;4985146;28;20033;-72
2020/12/23 00:19:59;;;;;;;11.95;2.55;;;7.20;94.80;;;;;;4980396;28;20033;-72
2020/12/23 00:22:25;;;;;;;8.57;2.35;;;7.20;94.30;;;;;;4975774;28;20034;-72
2020/12/23 00:24:51;;;;;;;12.85;3.13;;;7.20;94.60;;;;;;4981429;28;20026;-72
2020/12/23 00:27:19;;;;;;;10.63;2.90;;;7.20;94.60;;;;;;5009925;28;20034;-71
2020/12/23 00:29:45;;;;;;;10.57;3.08;;;7.20;94.90;;;;;;4997016;28;20078;-71
2020/12/23 00:32:11;;;;;;;14.55;3.35;;;7.20;95.10;;;;;;4989582;28;20501;-73
2020/12/23 00:34:36;;;;;;;20.20;3.88;;;7.10;94.30;;;;;;4994567;28;20029;-72
2020/12/23 00:37:02;;;;;;;12.02;2.92;;;7.10;95.10;;;;;;4997395;28;20034;-73
2020/12/23 00:39:28;;;;;;;11.43;3.28;;;7.10;95.10;;;;;;4978879;28;20156;-71
2020/12/23 00:41:53;;;;;;;14.30;2.85;;;7.10;95.10;;;;;;4993021;28;20033;-71
2020/12/23 00:44:19;;;;;;;9.25;2.58;;;7.10;95.60;;;;;;5003786;28;20014;-71
2020/12/23 00:46:45;;;;;;;16.60;3.33;;;7.00;95.30;;;;;;4999413;28;20059;-72
2020/12/23 00:49:11;;;;;;;13.35;3.45;;;7.00;95.30;;;;;;4981590;28;20033;-72
2020/12/23 00:51:37;;;;;;;22.75;4.28;;;7.00;95.60;;;;;;4975844;28;20030;-72
2020/12/23 00:54:03;;;;;;;14.20;3.80;;;7.00;95.50;;;;;;5000075;28;20025;-72
2020/12/23 00:56:29;;;;;;;17.45;3.80;;;6.90;94.80;;;;;;4978902;28;20033;-71
2020/12/23 00:58:54;;;;;;;16.38;3.72;;;6.90;95.00;;;;;;4984772;28;20021;-72
2020/12/23 01:01:20;;;;;;;17.58;3.70;;;6.90;95.50;;;;;;4993419;28;20080;-71
2020/12/23 01:03:46;;;;;;;13.88;3.50;;;6.90;95.50;;;;;;4997600;28;20026;-72
2020/12/23 01:06:13;;;;;;;17.58;3.33;;;6.90;95.40;;;;;;5011096;28;20041;-72
2020/12/23 01:08:40;;;;;;;16.80;3.53;;;6.80;95.90;;;;;;4999129;28;20026;-71
2020/12/23 01:11:06;;;;;;;15.88;4.20;;;6.80;96.20;;;;;;5016667;28;20014;-71
2020/12/23 01:13:33;;;;;;;18.95;4.07;;;6.80;95.80;;;;;;5012421;28;20080;-71
2020/12/23 01:15:59;;;;;;;13.43;3.70;;;6.80;96.00;;;;;;5010492;28;20105;-71
2020/12/23 01:18:25;;;;;;;13.77;3.70;;;6.80;95.60;;;;;;5009166;28;20558;-73
2020/12/23 01:20:51;;;;;;;11.38;3.88;;;6.80;95.50;;;;;;5014364;28;20041;-73
2020/12/23 01:23:16;;;;;;;15.55;4.35;;;6.70;95.50;;;;;;5016228;28;20018;-72
2020/12/23 01:25:42;;;;;;;17.65;4.25;;;6.70;95.70;;;;;;5001497;28;20041;-71
2020/12/23 01:28:08;;;;;;;17.40;3.92;;;6.70;95.30;;;;;;5017075;28;20022;-72
2020/12/23 01:30:34;;;;;;;20.67;4.35;;;6.70;95.20;;;;;;4984417;28;20022;-72
2020/12/23 01:32:59;;;;;;;17.63;4.65;;;6.70;95.60;;;;;;4999746;28;20037;-73
2020/12/23 01:35:25;;;;;;;19.40;4.97;;;6.70;95.80;;;;;;5000474;28;20054;-72
2020/12/23 01:37:50;;;;;;;15.23;4.03;;;6.70;95.80;;;;;;5002033;28;20034;-69
2020/12/23 01:40:16;;;;;;;11.60;4.32;;;6.70;95.70;;;;;;5013369;28;20030;-75
2020/12/23 01:42:42;;;;;;;11.48;3.05;;;6.70;95.20;;;;;;4999971;28;20573;-72
2020/12/23 01:45:07;;;;;;;11.65;3.08;;;6.70;94.90;;;;;;5024836;28;20433;-71
2020/12/23 01:47:35;;;;;;;16.30;3.67;;;6.70;94.40;;;;;;5012566;28;20030;-73
2020/12/23 01:50:01;;;;;;;12.75;3.25;;;6.70;94.70;;;;;;5013058;28;20461;-71
2020/12/23 01:52:27;;;;;;;12.63;3.90;;;6.80;93.80;;;;;;5012429;28;20030;-71
2020/12/23 01:54:54;;;;;;;18.45;4.07;;;6.70;95.10;;;;;;4999313;28;20040;-70
2020/12/23 01:57:20;;;;;;;15.27;4.15;;;6.70;95.20;;;;;;5001572;28;20034;-70
2020/12/23 01:59:47;;;;;;;16.42;4.28;;;6.60;95.30;;;;;;5013505;28;20034;-70
2020/12/23 02:02:29;;;;;;;16.98;3.90;;;6.60;94.90;;;;;;4998091;28;20469;-70
2020/12/23 02:05:00;;;;;;;16.00;4.00;;;6.60;94.60;;;;;;5001148;28;20037;-70
2020/12/23 02:07:27;;;;;;;17.65;4.53;;;6.60;95.30;;;;;;4999332;28;20057;-71
2020/12/23 02:09:54;;;;;;;18.88;4.40;;;6.50;95.30;;;;;;5013302;28;20026;-70
2020/12/23 02:12:21;;;;;;;13.45;3.85;;;6.60;95.20;;;;;;4984254;28;20034;-72
2020/12/23 02:14:47;;;;;;;18.15;4.55;;;6.50;94.40;;;;;;5013609;23;20425;-73
2020/12/23 02:17:13;;;;;;;16.55;4.55;;;6.60;94.80;;;;;;5000374;28;20053;-74
2020/12/23 02:19:51;;;;;;;13.82;4.85;;;6.50;95.20;;;;;;4999607;28;20501;-74
2020/12/23 02:22:22;;;;;;;13.23;4.65;;;6.50;95.10;;;;;;4969727;28;20497;-74
2020/12/23 02:24:50;;;;;;;15.98;4.50;;;6.50;95.50;;;;;;4983982;28;20056;-74
2020/12/23 02:27:16;;;;;;;18.45;5.25;;;6.50;95.40;;;;;;4968173;28;20034;-74
2020/12/23 02:29:47;;;;;;;14.52;5.18;;;6.50;95.60;;;;;;4985278;28;20173;-73
2020/12/23 02:32:13;;;;;;;15.35;5.13;;;6.50;95.50;;;;;;4999423;28;20056;-73
2020/12/23 02:34:39;;;;;;;13.95;5.30;;;6.50;95.60;;;;;;4981841;28;20400;-73
2020/12/23 02:37:06;;;;;;;19.27;5.43;;;6.40;95.50;;;;;;5000216;28;20026;-73
2020/12/23 02:39:32;;;;;;;16.23;5.80;;;6.40;95.60;;;;;;5001363;28;20393;-73
2020/12/23 02:41:59;;;;;;;16.10;4.43;;;6.40;95.70;;;;;;5000357;28;20457;-73
2020/12/23 02:44:25;;;;;;;16.73;5.43;;;6.40;95.30;;;;;;5002497;28;20022;-73
2020/12/23 02:46:56;;;;;;;21.02;5.68;;;6.30;95.40;;;;;;4999000;28;20401;-74
2020/12/23 02:49:22;;;;;;;11.27;4.93;;;6.30;95.50;;;;;;4982715;28;20562;-74
2020/12/23 02:51:48;;;;;;;19.85;5.68;;;6.30;95.70;;;;;;5000548;28;20118;-75
2020/12/23 02:54:14;;;;;;;14.38;5.55;;;6.30;95.80;;;;;;5000260;28;20026;-74
2020/12/23 02:56:39;;;;;;;18.55;6.30;;;6.30;95.70;;;;;;4999818;28;20034;-74
2020/12/23 02:59:05;;;;;;;16.35;5.20;;;6.20;95.80;;;;;;5000774;28;20031;-73
2020/12/23 03:01:31;;;;;;;18.02;5.40;;;6.20;95.90;;;;;;4994193;28;20028;-73
2020/12/23 03:03:56;;;;;;;12.82;5.05;;;6.20;95.90;;;;;;5000609;28;20030;-72
2020/12/23 03:06:22;;;;;;;15.00;5.05;;;6.20;95.70;;;;;;4998726;28;20265;-73
2020/12/23 03:08:47;;;;;;;18.15;5.43;;;6.20;95.70;;;;;;5000763;28;20045;-73
2020/12/23 03:11:13;;;;;;;21.08;6.15;;;6.30;95.50;;;;;;5015770;28;20057;-74
2020/12/23 03:13:39;;;;;;;14.70;4.80;;;6.30;95.60;;;;;;4998706;28;20029;-74
2020/12/23 03:16:04;;;;;;;14.63;6.15;;;6.20;95.70;;;;;;4984543;28;20080;-74
2020/12/23 03:18:31;;;;;;;13.40;4.93;;;6.30;95.80;;;;;;4987129;28;20161;-73
2020/12/23 03:20:57;;;;;;;18.75;5.45;;;6.30;95.70;;;;;;4996143;28;20096;-74
2020/12/23 03:23:22;;;;;;;11.82;4.90;;;6.20;95.70;;;;;;4998288;28;20110;-73
2020/12/23 03:25:48;;;;;;;12.15;5.07;;;6.20;95.50;;;;;;4967641;28;20023;-73
2020/12/23 03:28:14;;;;;;;12.13;5.20;;;6.30;95.60;;;;;;4982114;28;20035;-73
2020/12/23 03:30:39;;;;;;;21.92;7.53;;;6.30;95.10;;;;;;4981918;28;20041;-73
2020/12/23 03:33:05;;;;;;;21.80;7.05;;;6.30;95.20;;;;;;4984596;28;20034;-73
2020/12/23 03:35:31;;;;;;;14.25;5.53;;;6.30;95.70;;;;;;4983168;28;20118;-73
2020/12/23 03:37:56;;;;;;;17.85;6.43;;;6.30;95.80;;;;;;4997538;28;20065;-73
2020/12/23 03:40:22;;;;;;;18.73;6.50;;;6.30;95.80;;;;;;4998743;28;20129;-73
2020/12/23 03:42:47;;;;;;;21.60;7.30;;;6.30;95.70;;;;;;4982275;28;20512;-73
2020/12/23 03:45:13;;;;;;;16.70;6.90;;;6.30;95.50;;;;;;4981142;28;20057;-73
2020/12/23 03:47:39;;;;;;;22.45;8.13;;;6.30;95.60;;;;;;4984615;28;20537;-73
2020/12/23 03:50:05;;;;;;;25.67;9.82;;;6.40;95.70;;;;;;4999847;28;20034;-73
2020/12/23 03:52:31;;;;;;;22.67;9.50;;;6.40;95.50;;;;;;4996177;28;20168;-73
2020/12/23 03:54:56;;;;;;;24.52;10.45;;;6.40;95.60;;;;;;4998382;28;20037;-73
2020/12/23 03:57:22;;;;;;;31.58;11.90;;;6.40;95.80;;;;;;4997867;28;20038;-73
2020/12/23 03:59:48;;;;;;;31.00;12.70;;;6.40;95.90;;;;;;4983947;28;20027;-73
2020/12/23 04:02:13;;;;;;;34.10;12.95;;;6.40;95.80;;;;;;4998529;28;20157;-73
2020/12/23 04:04:39;;;;;;;34.08;13.98;;;6.40;95.90;;;;;;4985730;28;20022;-74
2020/12/23 04:07:05;;;;;;;45.90;14.35;;;6.50;96.10;;;;;;4981878;28;20477;-73
2020/12/23 04:09:30;;;;;;;62.03;14.38;;;6.50;96.20;;;;;;5002083;28;20030;-73
2020/12/23 04:11:56;;;;;;;20.90;12.30;;;6.50;96.20;;;;;;4965246;28;20121;-73
2020/12/23 04:14:22;;;;;;;57.05;14.27;;;6.50;96.20;;;;;;4998140;28;20052;-74
2020/12/23 04:16:47;;;;;;;29.00;13.30;;;6.50;96.40;;;;;;4979934;28;20029;-74
2020/12/23 04:19:13;;;;;;;32.03;11.90;;;6.40;96.40;;;;;;4999913;28;20053;-74
2020/12/23 04:21:38;;;;;;;48.25;14.90;;;6.50;96.30;;;;;;4964929;28;20113;-74
2020/12/23 04:24:04;;;;;;;31.38;12.73;;;6.50;96.50;;;;;;4999477;28;20072;-74
2020/12/23 04:26:30;;;;;;;26.27;12.45;;;6.40;96.60;;;;;;4984197;28;20466;-74
2020/12/23 04:28:56;;;;;;;64.20;15.68;;;6.40;96.40;;;;;;4998254;28;20101;-74
2020/12/23 04:31:21;;;;;;;62.63;14.15;;;6.40;96.40;;;;;;4979463;28;20030;-74
2020/12/23 04:33:47;;;;;;;139.15;18.27;;;6.40;96.50;;;;;;4983387;28;20036;-74
2020/12/23 04:36:12;;;;;;;53.20;17.13;;;6.40;96.40;;;;;;4983166;28;20112;-74
2020/12/23 04:38:38;;;;;;;39.42;16.38;;;6.40;96.60;;;;;;4999290;28;20565;-74
2020/12/23 04:41:04;;;;;;;73.97;20.85;;;6.40;96.80;;;;;;4979066;28;20504;-74
2020/12/23 04:43:30;;;;;;;44.13;19.33;;;6.40;96.80;;;;;;5016047;28;20564;-74
2020/12/23 04:45:57;;;;;;;48.55;19.70;;;6.40;96.90;;;;;;4999726;28;20096;-74
2020/12/23 04:48:26;;;;;;;71.03;22.55;;;6.40;96.90;;;;;;4995670;28;20505;-74
2020/12/23 04:50:56;;;;;;;61.17;19.67;;;6.40;96.50;;;;;;4981248;28;20087;-74
2020/12/23 04:53:23;;;;;;;61.72;21.80;;;6.40;96.50;;;;;;4979875;28;20054;-74
2020/12/23 04:55:49;;;;;;;87.28;20.92;;;6.40;96.40;;;;;;4997785;28;20026;-74
2020/12/23 04:58:15;;;;;;;52.38;19.13;;;6.40;96.00;;;;;;4997205;28;20055;-74
2020/12/23 05:00:40;;;;;;;40.72;18.15;;;6.40;96.20;;;;;;4987429;28;20033;-74
2020/12/23 05:03:06;;;;;;;40.33;16.70;;;6.40;96.20;;;;;;4998492;28;20481;-74
2020/12/23 05:05:32;;;;;;;67.05;20.08;;;6.30;96.50;;;;;;4991489;28;20385;-74
2020/12/23 05:07:58;;;;;;;38.65;17.33;;;6.30;96.60;;;;;;4963933;28;20470;-74
2020/12/23 05:10:28;;;;;;;44.83;18.40;;;6.30;96.70;;;;;;4967479;28;20018;-74
2020/12/23 05:12:55;;;;;;;49.30;18.50;;;6.30;96.70;;;;;;4981517;28;20504;-74
2020/12/23 05:15:22;;;;;;;67.70;19.55;;;6.30;96.50;;;;;;4997363;28;20081;-74
2020/12/23 05:17:50;;;;;;;100.22;22.42;;;6.20;96.60;;;;;;4981040;28;20037;-74
2020/12/23 05:20:15;;;;;;;95.82;21.30;;;6.20;96.80;;;;;;4977285;28;20513;-74
2020/12/23 05:22:46;;;;;;;62.15;19.77;;;6.10;96.90;;;;;;4994293;28;20034;-74
2020/12/23 05:25:13;;;;;;;76.93;21.00;;;6.10;96.90;;;;;;4995181;28;20014;-74
2020/12/23 05:27:41;;;;;;;53.88;19.05;;;6.20;96.70;;;;;;4997040;28;20073;-74
2020/12/23 05:30:08;;;;;;;88.82;18.08;;;6.20;96.60;;;;;;5000035;28;20031;-74
2020/12/23 05:32:35;;;;;;;74.40;18.98;;;6.20;95.70;;;;;;4999669;28;20034;-74
2020/12/23 05:35:00;;;;;;;55.03;17.25;;;6.10;95.90;;;;;;4999269;28;20042;-74
2020/12/23 05:37:27;;;;;;;69.72;20.20;;;6.10;95.80;;;;;;4998603;28;20402;-74
2020/12/23 05:39:53;;;;;;;49.05;18.63;;;6.00;96.00;;;;;;4995593;28;20030;-74
2020/12/23 05:42:20;;;;;;;47.60;20.23;;;6.00;96.30;;;;;;4982201;28;20053;-74
2020/12/23 05:44:55;;;;;;;48.10;19.52;;;6.10;96.60;;;;;;4999864;28;20038;-74
2020/12/23 05:47:23;;;;;;;55.70;21.10;;;6.10;96.70;;;;;;4966373;28;20030;-74
2020/12/23 05:49:50;;;;;;;58.58;20.25;;;6.10;96.80;;;;;;4996601;28;20039;-74
2020/12/23 05:52:18;;;;;;;67.93;21.13;;;6.10;96.90;;;;;;4995108;28;20034;-74
2020/12/23 05:54:44;;;;;;;37.72;18.15;;;6.10;96.60;;;;;;4980105;28;20049;-74
2020/12/23 05:57:10;;;;;;;52.58;21.10;;;6.10;96.40;;;;;;4980800;28;20041;-74
2020/12/23 05:59:35;;;;;;;43.90;19.48;;;6.20;96.50;;;;;;4997988;28;20034;-74
2020/12/23 06:02:04;;;;;;;51.42;20.38;;;6.10;96.40;;;;;;4999409;28;20053;-74
2020/12/23 06:04:31;;;;;;;53.75;20.98;;;6.20;96.50;;;;;;5003487;28;20049;-73
2020/12/23 06:07:04;;;;;;;52.22;19.80;;;6.10;96.50;;;;;;5017427;28;20068;-72
2020/12/23 06:09:47;;;;;;;49.30;19.17;;;6.20;96.00;;;;;;4991519;28;20032;-73
2020/12/23 06:12:18;;;;;;;41.08;17.10;;;6.20;96.10;;;;;;4999656;28;20122;-73
2020/12/23 06:14:50;;;;;;;;;;;6.20;96.10;;;;;;4968500;28;20049;-73
2020/12/23 06:17:16;;;;;;;38.15;15.90;;;6.20;96.20;;;;;;5000033;28;19972;-73
2020/12/23 06:19:46;;;;;;;32.15;13.85;;;6.20;95.70;;;;;;5000261;28;20027;-73
2020/12/23 06:22:11;;;;;;;48.08;19.25;;;6.20;96.30;;;;;;4966138;28;20022;-73
2020/12/23 06:24:38;;;;;;;39.88;17.85;;;6.30;96.60;;;;;;5000711;28;20438;-73
2020/12/23 06:27:05;;;;;;;42.25;17.38;;;6.30;96.20;;;;;;4995665;28;20027;-73
2020/12/23 06:29:33;;;;;;;41.08;17.67;;;6.30;95.90;;;;;;4985227;28;20026;-73
2020/12/23 06:32:04;;;;;;;46.78;20.58;;;6.30;95.80;;;;;;4967391;28;20060;-73
2020/12/23 06:34:32;;;;;;;51.53;17.80;;;6.30;95.60;;;;;;4967080;28;20398;-73
2020/12/23 06:36:58;;;;;;;65.88;18.35;;;6.20;95.90;;;;;;4967485;28;20088;-73
2020/12/23 06:39:25;;;;;;;35.30;15.68;;;6.30;96.10;;;;;;4997908;28;20358;-73
2020/12/23 06:42:15;;;;;;;39.22;16.50;;;6.20;96.00;;;;;;4999646;28;20044;-74
2020/12/23 06:44:43;;;;;;;35.25;15.98;;;6.20;96.00;;;;;;4984090;28;20055;-73
2020/12/23 06:47:16;;;;;;;37.15;16.77;;;6.20;96.10;;;;;;4998969;28;20033;-74
2020/12/23 06:49:44;;;;;;;50.35;19.80;;;6.10;96.00;;;;;;4999439;28;20034;-73
2020/12/23 06:52:22;;;;;;;48.38;18.55;;;6.10;96.00;;;;;;4998546;28;20026;-74
2020/12/23 06:55:03;;;;;;;45.97;17.02;;;6.10;95.90;;;;;;4981484;28;20068;-73
2020/12/23 06:57:37;;;;;;;40.70;17.60;;;6.10;95.90;;;;;;5001055;28;20193;-73
2020/12/23 07:00:03;;;;;;;34.72;16.38;;;6.10;96.00;;;;;;5001163;28;20038;-73
2020/12/23 07:02:32;;;;;;;44.67;17.15;;;6.10;95.70;;;;;;4999944;28;20504;-73
2020/12/23 07:04:59;;;;;;;38.47;16.98;;;6.10;95.70;;;;;;4981806;28;20021;-73
2020/12/23 07:07:43;;;;;;;35.00;16.15;;;6.10;95.90;;;;;;4983911;28;20033;-73
2020/12/23 07:10:18;;;;;;;41.22;17.15;;;6.10;95.90;;;;;;4978234;28;20053;-73
2020/12/23 07:12:58;;;;;;;49.88;18.13;;;6.10;95.60;;;;;;5000061;28;20034;-73
2020/12/23 07:15:28;;;;;;;54.90;19.77;;;6.10;95.30;;;;;;4998963;28;20497;-73
2020/12/23 07:18:12;;;;;;;50.28;17.48;;;6.00;95.50;;;;;;5000110;28;20034;-73
2020/12/23 07:20:44;;;;;;;45.50;18.58;;;6.00;95.80;;;;;;4982580;28;20088;-73
2020/12/23 07:23:12;;;;;;;61.40;20.08;;;5.90;95.90;;;;;;4982216;28;20457;-74
2020/12/23 07:25:49;;;;;;;45.40;18.48;;;5.90;95.90;;;;;;4999921;28;20066;-73
2020/12/23 07:28:17;;;;;;;45.50;18.58;;;5.90;96.00;;;;;;4998803;28;20054;-74
2020/12/23 07:30:44;;;;;;;44.20;16.75;;;5.90;95.90;;;;;;4999925;28;20452;-74
2020/12/23 07:33:22;;;;;;;42.70;18.45;;;6.00;95.20;;;;;;4982853;28;20121;-74
2020/12/23 07:35:49;;;;;;;52.10;18.70;;;6.00;95.30;;;;;;4996762;28;20085;-73
2020/12/23 07:38:16;;;;;;;43.13;16.65;;;5.90;95.70;;;;;;4983288;28;20521;-74
2020/12/23 07:40:43;;;;;;;43.85;16.45;;;6.00;95.40;;;;;;4981803;28;20061;-75
2020/12/23 07:43:09;;;;;;;54.50;17.73;;;5.90;95.70;;;;;;4999812;28;20038;-74
2020/12/23 07:45:36;;;;;;;44.75;16.50;;;5.90;95.90;;;;;;5015900;28;20026;-75
2020/12/23 07:48:09;;;;;;;42.17;17.05;;;5.90;95.60;;;;;;5004538;28;20109;-74
2020/12/23 07:50:39;;;;;;;40.35;15.60;;;5.90;95.80;;;;;;4966346;28;20107;-75
2020/12/23 07:53:18;;;;;;;38.40;16.92;;;5.90;95.50;;;;;;4964869;28;20497;-74
2020/12/23 07:55:46;;;;;;;37.58;16.60;;;5.90;95.40;;;;;;4998185;28;20084;-75
2020/12/23 07:58:12;;;;;;;41.40;16.23;;;5.90;95.40;;;;;;4998086;28;20440;-75
2020/12/23 08:00:40;;;;;;;40.40;17.50;;;5.80;95.50;;;;;;4979470;28;20026;-76
2020/12/23 08:03:07;;;;;;;48.05;19.17;;;5.80;95.50;;;;;;5012722;28;20560;-76
2020/12/23 08:05:36;;;;;;;49.70;18.55;;;5.80;95.60;;;;;;4995345;28;20015;-74
2020/12/23 08:08:02;;;;;;;59.42;19.98;;;5.80;95.70;;;;;;5002943;28;20026;-75
2020/12/23 08:10:28;;;;;;;47.40;18.40;;;5.80;95.50;;;;;;4983180;28;20030;-75
2020/12/23 08:12:59;;;;;;;52.55;18.55;;;5.80;95.20;;;;;;4994705;28;20026;-74
2020/12/23 08:15:26;;;;;;;51.10;19.15;;;5.80;95.20;;;;;;5034875;23;20039;-72
2020/12/23 08:18:06;;;;;;;42.35;17.35;;;5.80;95.10;;;;;;5017035;28;20615;-72
2020/12/23 08:20:33;;;;;;;45.67;17.25;;;5.80;95.10;;;;;;5013356;28;20087;-73
2020/12/23 08:22:59;;;;;;;54.40;19.33;;;5.80;95.00;;;;;;5022392;28;20025;-72
2020/12/23 08:25:27;;;;;;;54.30;19.92;;;5.80;95.00;;;;;;5032040;28;20045;-73
2020/12/23 08:27:56;;;;;;;49.28;19.73;;;5.80;95.00;;;;;;5030958;28;20029;-73
2020/12/23 08:30:24;;;;;;;60.90;22.17;;;5.80;94.90;;;;;;4995417;28;20908;-72
2020/12/23 08:32:57;;;;;;;62.58;21.70;;;5.90;94.70;;;;;;5027566;28;20064;-73
2020/12/23 08:35:31;;;;;;;71.55;23.50;;;5.80;95.00;;;;;;5030248;28;20431;-72
2020/12/23 08:37:57;;;;;;;72.82;23.48;;;5.80;94.70;;;;;;5027710;28;20040;-71
2020/12/23 08:40:23;;;;;;;72.57;24.05;;;5.80;94.50;;;;;;4988279;28;20049;-72
2020/12/23 08:42:59;;;;;;;67.20;23.48;;;5.80;94.60;;;;;;5005419;28;20084;-71
2020/12/23 08:45:31;;;;;;;61.22;20.73;;;5.80;95.00;;;;;;5022907;28;20080;-72
2020/12/23 08:47:58;;;;;;;63.20;19.95;;;5.80;95.10;;;;;;5023051;28;20049;-72
2020/12/23 08:50:27;;;;;;;64.38;22.42;;;5.80;95.10;;;;;;5006511;28;21459;-72
2020/12/23 08:52:53;;;;;;;63.78;22.35;;;5.80;95.10;;;;;;5005934;28;20044;-72
2020/12/23 08:55:24;;;;;;;65.47;23.60;;;5.80;95.10;;;;;;4990060;28;20358;-72
2020/12/23 08:57:50;;;;;;;61.70;22.95;;;5.80;94.80;;;;;;5007130;28;20496;-72
2020/12/23 09:00:22;;;;;;;63.65;21.88;;;5.80;95.40;;;;;;5024084;28;20021;-72
2020/12/23 09:02:49;;;;;;;54.80;21.73;;;5.80;95.20;;;;;;5006581;28;20401;-72
2020/12/23 09:05:23;;;;;;;60.45;21.90;;;5.80;95.30;;;;;;5005991;28;20025;-72
2020/12/23 09:08:01;;;;;;;59.15;22.38;;;5.80;95.00;;;;;;4992891;28;20488;-72
2020/12/23 09:10:27;;;;;;;52.00;19.42;;;5.80;95.10;;;;;;5023731;28;20048;-73
2020/12/23 09:13:11;;;;;;;59.88;21.17;;;5.80;95.20;;;;;;5024301;28;20501;-72
2020/12/23 09:15:41;;;;;;;60.00;22.17;;;5.80;95.00;;;;;;5023490;28;20046;-72
2020/12/23 09:18:11;;;;;;;53.10;21.73;;;5.80;95.40;;;;;;5021918;28;20077;-70
2020/12/23 09:20:40;;;;;;;59.13;20.53;;;5.80;95.70;;;;;;5021166;28;20038;-70
2020/12/23 09:23:07;;;;;;;57.97;19.58;;;5.70;95.60;;;;;;5022437;28;20493;-72
2020/12/23 09:25:34;;;;;;;60.85;19.73;;;5.80;95.80;;;;;;5021251;28;20376;-70
2020/12/23 09:28:09;;;;;;;65.32;19.83;;;5.70;95.60;;;;;;5022398;28;20396;-72
2020/12/23 09:30:42;;;;;;;58.10;21.08;;;5.80;95.50;;;;;;4990572;28;20033;-72
2020/12/23 09:33:16;;;;;;;52.92;18.75;;;5.70;95.40;;;;;;4990131;28;20029;-71
2020/12/23 09:35:44;;;;;;;52.20;19.40;;;5.80;95.40;;;;;;5008595;28;20449;-71
2020/12/23 09:38:13;;;;;;;50.17;19.38;;;5.80;95.70;;;;;;4985690;28;20125;-72
2020/12/23 09:40:41;;;;;;;49.90;19.00;;;5.80;95.50;;;;;;5006974;28;20692;-71
2020/12/23 09:43:13;;;;;;;46.08;17.67;;;5.80;95.50;;;;;;5008321;28;20033;-71
2020/12/23 09:45:40;;;;;;;53.60;19.10;;;5.80;95.50;;;;;;5009846;28;20493;-71
2020/12/23 09:48:06;;;;;;;41.95;16.98;;;5.80;95.60;;;;;;5030189;28;20064;-71
2020/12/23 09:50:33;;;;;;;47.15;16.27;;;5.80;95.60;;;;;;5010603;28;20477;-71
2020/12/23 09:52:58;;;;;;;43.75;16.45;;;5.80;95.40;;;;;;4994004;28;20041;-70
2020/12/23 09:55:24;;;;;;;44.95;16.80;;;5.80;95.60;;;;;;5007704;28;20030;-71
2020/12/23 09:57:51;;;;;;;48.15;17.77;;;5.80;95.50;;;;;;5013263;28;20037;-71
2020/12/23 10:00:17;;;;;;;48.25;17.35;;;5.80;96.10;;;;;;5028471;28;20025;-72
2020/12/23 10:02:44;;;;;;;52.50;17.23;;;5.80;96.00;;;;;;5005543;28;20056;-71
2020/12/23 10:05:10;;;;;;;48.50;16.55;;;5.90;95.70;;;;;;5028952;28;20033;-73
2020/12/23 10:07:36;;;;;;;37.85;15.27;;;5.90;95.60;;;;;;5010009;28;20384;-72
2020/12/23 10:10:02;;;;;;;38.25;15.75;;;5.90;95.20;;;;;;4998448;28;20030;-73
2020/12/23 10:12:27;;;;;;;40.83;15.63;;;5.90;95.30;;;;;;4998656;28;20021;-72
2020/12/23 10:14:53;;;;;;;35.92;15.38;;;5.90;95.00;;;;;;5010993;28;20041;-72
2020/12/23 10:17:19;;;;;;;36.22;15.57;;;5.90;95.10;;;;;;5011439;28;20064;-73
2020/12/23 10:19:45;;;;;;;45.35;16.30;;;5.90;95.30;;;;;;5010321;28;20068;-72
2020/12/23 10:22:10;;;;;;;42.83;15.32;;;5.90;95.10;;;;;;5030048;28;20041;-72
2020/12/23 10:24:37;;;;;;;46.03;16.50;;;5.90;95.00;;;;;;5029383;28;20084;-72
2020/12/23 10:27:03;;;;;;;47.25;16.65;;;5.90;95.10;;;;;;5012349;28;20073;-72
2020/12/23 10:29:28;;;;;;;43.55;17.25;;;5.90;95.20;;;;;;4996398;28;20101;-75
2020/12/23 10:31:54;;;;;;;54.20;17.75;;;6.00;95.00;;;;;;5037155;28;20040;-76
2020/12/23 10:34:20;;;;;;;56.38;19.42;;;6.00;95.20;;;;;;5001062;28;20025;-76
2020/12/23 10:36:49;;;;;;;54.17;18.67;;;6.00;95.10;;;;;;5009538;28;20026;-76
2020/12/23 10:39:16;;;;;;;53.28;19.40;;;6.00;94.90;;;;;;4995918;28;20076;-77
2020/12/23 10:41:42;;;;;;;40.88;16.55;;;6.00;95.30;;;;;;4998492;28;20025;-75
2020/12/23 10:44:08;;;;;;;46.03;17.63;;;6.00;95.60;;;;;;5014294;28;20018;-76
2020/12/23 10:46:34;;;;;;;39.95;15.65;;;6.00;95.60;;;;;;5008563;28;20059;-77
2020/12/23 10:48:59;;;;;;;40.58;14.70;;;6.00;95.50;;;;;;5018354;28;20114;-77
2020/12/23 10:51:25;;;;;;;31.92;13.07;;;6.10;95.20;;;;;;5021486;28;20033;-76
2020/12/23 10:53:51;;;;;;;31.30;13.73;;;6.10;95.00;;;;;;5000210;28;20033;-74
2020/12/23 10:56:17;;;;;;;27.58;12.05;;;6.10;95.30;;;;;;4999792;28;20049;-75
2020/12/23 10:58:42;;;;;;;33.85;13.82;;;6.10;95.40;;;;;;4998123;28;20040;-76
2020/12/23 11:01:08;;;;;;;35.88;14.15;;;6.10;95.60;;;;;;4997043;28;20404;-74
2020/12/23 11:03:34;;;;;;;29.52;12.27;;;6.10;95.60;;;;;;5026572;28;20063;-74
2020/12/23 11:06:01;;;;;;;25.08;10.57;;;6.10;95.60;;;;;;5010876;28;20392;-75
2020/12/23 11:08:27;;;;;;;25.15;10.68;;;6.10;95.50;;;;;;5010235;28;20027;-75
2020/12/23 11:10:53;;;;;;;22.15;9.57;;;6.20;95.30;;;;;;4997314;28;20034;-75
2020/12/23 11:13:19;;;;;;;18.70;9.23;;;6.20;95.40;;;;;;5014481;28;20025;-75
2020/12/23 11:15:45;;;;;;;19.42;9.23;;;6.20;95.50;;;;;;5011351;28;20726;-75
2020/12/23 11:18:11;;;;;;;21.67;9.48;;;6.20;95.20;;;;;;5010842;28;20021;-75
2020/12/23 11:20:37;;;;;;;22.58;10.20;;;6.20;95.20;;;;;;5010548;28;20037;-75
2020/12/23 11:23:03;;;;;;;27.20;12.38;;;6.20;95.20;;;;;;5012466;28;20025;-76
2020/12/23 11:25:29;;;;;;;29.55;12.13;;;6.60;97.10;;;;;;5015710;28;20075;-75
2020/12/23 11:27:55;;;;;;;26.38;11.82;;;6.60;96.60;;;;;;4999752;28;20026;-77
2020/12/23 11:30:21;;;;;;;22.02;12.05;;;6.80;95.80;;;;;;5028136;28;20045;-75
2020/12/23 11:32:47;;;;;;;26.50;11.38;;;6.80;95.10;;;;;;5012938;28;20076;-75
2020/12/23 11:35:12;;;;;;;23.02;11.32;;;6.70;95.00;;;;;;4998943;28;20018;-74
2020/12/23 11:37:38;;;;;;;19.75;11.50;;;6.70;95.00;;;;;;4996186;28;20069;-74
2020/12/23 11:40:04;;;;;;;21.00;11.32;;;6.70;94.90;;;;;;4996514;28;20033;-74
2020/12/23 11:42:30;;;;;;;22.50;10.45;;;6.70;94.70;;;;;;5015655;28;20430;-73
2020/12/23 11:44:56;;;;;;;22.00;10.88;;;6.60;94.60;;;;;;5008690;28;20441;-73
2020/12/23 11:47:22;;;;;;;15.57;9.38;;;6.60;94.70;;;;;;5006496;28;20051;-75
2020/12/23 11:49:47;;;;;;;18.13;9.75;;;6.60;94.80;;;;;;5005533;28;20026;-74
2020/12/23 11:52:13;;;;;;;20.25;9.65;;;6.60;94.80;;;;;;5005938;28;20108;-74
2020/12/23 11:54:39;;;;;;;13.85;8.93;;;6.60;95.50;;;;;;5008340;28;20484;-76
2020/12/23 11:57:05;;;;;;;22.13;10.45;;;6.60;95.30;;;;;;5007071;28;20370;-77
2020/12/23 11:59:31;;;;;;;18.70;9.48;;;6.60;95.10;;;;;;4993829;28;20033;-73
2020/12/23 12:01:56;;;;;;;17.42;9.18;;;6.60;95.20;;;;;;5023337;28;20026;-74
2020/12/23 12:04:22;;;;;;;18.17;8.07;;;6.70;95.70;;;;;;5032316;28;20071;-75
2020/12/23 12:06:54;;;;;;;14.00;7.97;;;6.70;95.70;;;;;;5011608;28;20029;-72
2020/12/23 12:09:20;;;;;;;18.83;8.20;;;6.70;96.10;;;;;;5009520;28;20604;-77
2020/12/23 12:11:45;;;;;;;14.38;8.10;;;6.80;95.80;;;;;;5009613;28;20108;-74
2020/12/23 12:14:11;;;;;;;14.80;7.57;;;6.80;95.10;;;;;;5029000;28;20160;-76
2020/12/23 12:16:37;;;;;;;16.45;7.47;;;6.80;95.10;;;;;;5029876;28;20056;-78
2020/12/23 12:19:02;;;;;;;16.35;8.65;;;6.80;95.40;;;;;;5015884;28;20036;-74
2020/12/23 12:21:28;;;;;;;17.02;8.52;;;6.70;95.30;;;;;;5006544;28;20033;-74
2020/12/23 12:23:54;;;;;;;16.55;8.80;;;6.70;95.30;;;;;;5011724;28;20063;-74
2020/12/23 12:26:28;;;;;;;14.07;8.10;;;6.70;95.30;;;;;;5029023;28;20048;-74
2020/12/23 12:28:53;;;;;;;17.17;8.82;;;6.70;95.30;;;;;;4996768;28;20018;-75
2020/12/23 12:31:19;;;;;;;19.73;9.70;;;6.70;95.50;;;;;;4995599;28;20112;-75
2020/12/23 12:33:47;;;;;;;16.83;9.23;;;6.70;95.40;;;;;;4991318;28;20352;-75
2020/12/23 12:36:13;;;;;;;21.02;10.38;;;6.70;95.50;;;;;;5013490;28;20022;-75
2020/12/23 12:38:39;;;;;;;18.45;9.15;;;6.70;95.40;;;;;;5011054;28;20384;-76
2020/12/23 12:41:05;;;;;;;20.95;8.80;;;6.70;95.60;;;;;;5010293;28;20053;-75